Time;durP1;ratioP1;P1;durP2;ratioP2;P2;SDS_P1;SDS_P2;PMS_P1;PMS_P2;Temp;Humidity;BMP_temperature;BMP_pressure;BME280_temperature;BME280_humidity;BME280_pressure;Samples;Min_cycle;Max_cycle;Signal;HPM_P1;HPM_P2
2023/06/11 00:02:00;;;;;;;8.43;3.50;;;19.20;99.90;;;;;;4982754;28;20064;-83
2023/06/11 00:04:26;;;;;;;6.72;3.63;;;;;;;;;;4982318;28;20051;-83
2023/06/11 00:06:59;;;;;;;9.90;3.75;;;19.20;99.90;;;;;;4985810;28;20050;-83
2023/06/11 00:09:26;;;;;;;13.05;4.32;;;19.30;99.90;;;;;;4988266;28;20089;-83
2023/06/11 00:11:53;;;;;;;8.85;3.58;;;19.10;99.90;;;;;;4985168;28;20082;-84
2023/06/11 00:14:20;;;;;;;7.00;3.80;;;19.00;99.90;;;;;;4985399;28;20488;-83
2023/06/11 00:16:46;;;;;;;9.18;3.60;;;18.80;99.90;;;;;;4972919;28;20484;-83
2023/06/11 00:19:12;;;;;;;8.32;3.53;;;18.90;99.90;;;;;;4985521;28;20148;-83
2023/06/11 00:21:43;;;;;;;12.30;3.95;;;18.70;99.90;;;;;;4985687;28;20042;-83
2023/06/11 00:24:11;;;;;;;9.52;3.50;;;18.60;99.90;;;;;;4983415;28;20039;-83
2023/06/11 00:26:38;;;;;;;7.10;3.33;;;;;;;;;;4971696;28;20053;-83
2023/06/11 00:29:04;;;;;;;8.32;3.75;;;18.60;99.90;;;;;;4985272;28;20126;-83
2023/06/11 00:31:30;;;;;;;10.02;4.00;;;18.70;99.90;;;;;;4988206;28;20428;-83
2023/06/11 00:33:56;;;;;;;9.77;4.57;;;;;;;;;;4969801;28;20054;-83
2023/06/11 00:36:26;;;;;;;10.00;4.40;;;;;;;;;;4969761;28;20046;-83
2023/06/11 00:38:52;;;;;;;10.20;4.32;;;18.70;99.90;;;;;;4988553;28;20041;-83
2023/06/11 00:41:18;;;;;;;10.82;4.53;;;18.70;99.90;;;;;;4975853;28;20046;-83
2023/06/11 00:43:44;;;;;;;8.95;4.50;;;;;;;;;;4984312;28;20038;-84
2023/06/11 00:46:10;;;;;;;10.50;3.95;;;18.70;99.90;;;;;;4989929;28;20558;-83
2023/06/11 00:48:38;;;;;;;13.07;5.20;;;18.70;99.90;;;;;;4987935;28;20047;-83
2023/06/11 00:51:05;;;;;;;11.60;4.85;;;18.70;99.90;;;;;;4990382;28;20046;-83
2023/06/11 00:53:30;;;;;;;10.52;5.22;;;18.70;99.90;;;;;;4989517;28;20069;-83
2023/06/11 00:55:56;;;;;;;9.35;4.60;;;;;;;;;;4988806;28;20039;-84
2023/06/11 00:58:23;;;;;;;12.93;5.10;;;;;;;;;;4988650;28;20042;-83
2023/06/11 01:00:52;;;;;;;10.32;6.45;;;18.90;99.90;;;;;;4984161;28;20069;-83
2023/06/11 01:03:21;;;;;;;11.32;5.60;;;18.80;99.90;;;;;;4972795;28;20133;-83
2023/06/11 01:05:49;;;;;;;9.10;5.38;;;18.50;99.90;;;;;;4975110;28;20073;-83
2023/06/11 01:08:17;;;;;;;14.07;5.63;;;18.70;99.90;;;;;;4984161;28;20077;-84
2023/06/11 01:10:44;;;;;;;9.50;5.47;;;;;;;;;;4989609;28;20042;-83
2023/06/11 01:13:10;;;;;;;9.30;5.90;;;;;;;;;;4987827;28;20060;-84
2023/06/11 01:15:35;;;;;;;7.90;5.80;;;18.80;99.90;;;;;;4988352;28;20096;-83
2023/06/11 01:18:19;;;;;;;10.20;5.50;;;18.70;99.90;;;;;;4984310;28;20806;-83
2023/06/11 01:20:56;;;;;;;8.52;5.22;;;18.50;99.90;;;;;;4990972;28;20549;-83
2023/06/11 01:23:41;;;;;;;10.15;6.25;;;18.80;99.90;;;;;;4974549;28;20512;-83
2023/06/11 01:26:22;;;;;;;11.95;5.85;;;20.70;99.90;;;;;;4982658;28;20056;-83
2023/06/11 01:28:54;;;;;;;10.02;6.10;;;18.60;99.90;;;;;;4988163;28;20046;-82
2023/06/11 01:31:21;;;;;;;10.30;5.25;;;18.60;99.90;;;;;;4987992;28;20053;-83
2023/06/11 01:33:47;;;;;;;9.70;6.22;;;;;;;;;;4975067;28;20053;-83
2023/06/11 01:36:14;;;;;;;7.80;6.00;;;;;;;;;;4974104;28;20066;-83
2023/06/11 01:38:44;;;;;;;11.35;5.90;;;18.80;99.90;;;;;;4978371;28;20225;-83
2023/06/11 01:41:14;;;;;;;9.80;6.10;;;18.80;99.90;;;;;;4976290;28;20507;-83
2023/06/11 01:43:40;;;;;;;7.95;5.70;;;18.60;99.90;;;;;;4977832;28;20038;-83
2023/06/11 01:46:06;;;;;;;11.27;6.88;;;18.60;99.90;;;;;;4975945;28;20042;-83
2023/06/11 01:48:32;;;;;;;7.47;5.60;;;18.70;99.90;;;;;;4991638;28;20569;-83
2023/06/11 01:50:58;;;;;;;8.18;6.03;;;;;;;;;;4975783;28;20152;-84
2023/06/11 01:53:25;;;;;;;10.55;6.20;;;;;;;;;;4990680;28;20054;-83
2023/06/11 01:55:51;;;;;;;8.82;5.65;;;;;;;;;;4992512;28;20112;-83
2023/06/11 01:58:17;;;;;;;9.75;5.97;;;18.30;99.90;;;;;;4989546;28;20042;-83
2023/06/11 02:00:43;;;;;;;7.78;6.10;;;;;;;;;;4971287;28;20033;-83
2023/06/11 02:03:09;;;;;;;8.80;6.35;;;;;;;;;;4988461;28;20406;-83
2023/06/11 02:05:36;;;;;;;8.70;5.80;;;;;;;;;;4991852;28;20042;-84
2023/06/11 02:08:01;;;;;;;14.48;5.95;;;18.40;99.90;;;;;;4978925;28;20077;-83
2023/06/11 02:10:27;;;;;;;7.85;5.78;;;18.40;99.90;;;;;;4991054;28;20119;-84
2023/06/11 02:12:52;;;;;;;8.52;5.95;;;18.40;99.90;;;;;;4980660;28;20073;-83
2023/06/11 02:15:19;;;;;;;10.30;6.13;;;18.30;99.90;;;;;;4993749;28;20041;-83
2023/06/11 02:17:45;;;;;;;7.88;6.25;;;;;;;;;;4977842;28;20048;-84
2023/06/11 02:20:13;;;;;;;10.65;6.07;;;;;;;;;;4986208;28;20137;-83
2023/06/11 02:22:39;;;;;;;8.32;5.90;;;;;;;;;;4993182;28;20052;-83
2023/06/11 02:25:05;;;;;;;6.55;5.80;;;17.10;99.90;;;;;;4977483;28;20045;-83
2023/06/11 02:27:31;;;;;;;9.90;6.63;;;;;;;;;;4992494;28;20038;-83
2023/06/11 02:29:57;;;;;;;8.32;6.70;;;18.20;99.90;;;;;;4987103;28;20045;-83
2023/06/11 02:32:24;;;;;;;7.78;6.35;;;;;;;;;;4972610;28;20037;-83
2023/06/11 02:34:50;;;;;;;9.23;6.82;;;;;;;;;;4988505;28;20042;-84
2023/06/11 02:37:16;;;;;;;9.40;7.13;;;;;;;;;;4986625;28;20058;-83
2023/06/11 02:39:42;;;;;;;9.02;6.45;;;;;;;;;;4991661;28;20054;-83
2023/06/11 02:42:08;;;;;;;7.85;6.63;;;18.20;99.90;;;;;;4970402;28;20448;-83
2023/06/11 02:44:34;;;;;;;13.07;7.55;;;18.20;99.90;;;;;;4987358;28;20069;-83
2023/06/11 02:47:00;;;;;;;8.55;6.85;;;;;;;;;;4981225;28;20096;-84
2023/06/11 02:49:26;;;;;;;9.23;7.50;;;;;;;;;;4968479;28;20152;-83
2023/06/11 02:51:52;;;;;;;10.43;6.78;;;18.20;99.90;;;;;;4988526;28;20046;-83
2023/06/11 02:54:18;;;;;;;9.65;7.63;;;18.10;99.90;;;;;;4990716;28;20050;-83
2023/06/11 02:56:44;;;;;;;7.82;6.22;;;;;;;;;;4992235;28;20144;-83
2023/06/11 02:59:09;;;;;;;10.75;7.05;;;;;;;;;;4987150;28;20515;-83
2023/06/11 03:01:38;;;;;;;8.88;7.30;;;;;;;;;;5000070;28;20046;-83
2023/06/11 03:04:04;;;;;;;10.00;7.15;;;;;;;;;;4987312;28;20045;-83
2023/06/11 03:06:30;;;;;;;8.88;6.90;;;;;;;;;;4975538;28;20053;-83
2023/06/11 03:08:56;;;;;;;9.55;7.32;;;;;;;;;;4976009;28;20042;-83
2023/06/11 03:11:22;;;;;;;9.07;6.22;;;;;;;;;;4990567;28;20069;-83
2023/06/11 03:13:47;;;;;;;9.48;7.25;;;18.00;99.90;;;;;;4973571;28;20030;-83
2023/06/11 03:16:13;;;;;;;11.48;6.82;;;;;;;;;;4965994;28;20382;-82
2023/06/11 03:18:39;;;;;;;9.23;7.55;;;;;;;;;;4974014;28;20484;-83
2023/06/11 03:21:05;;;;;;;8.43;6.55;;;;;;;;;;4986361;28;20038;-83
2023/06/11 03:23:31;;;;;;;8.07;7.25;;;;;;;;;;4981680;28;20511;-83
2023/06/11 03:25:57;;;;;;;8.00;7.20;;;;;;;;;;4988322;28;20473;-83
2023/06/11 03:28:23;;;;;;;10.18;7.45;;;;;;;;;;4987683;28;20050;-83
2023/06/11 03:30:49;;;;;;;10.32;8.00;;;18.00;99.90;;;;;;4985444;28;20042;-83
2023/06/11 03:33:15;;;;;;;8.85;7.13;;;;;;;;;;4973051;28;20090;-83
2023/06/11 03:35:41;;;;;;;10.70;7.28;;;;;;;;;;4989617;28;20046;-84
2023/06/11 03:38:07;;;;;;;8.48;7.10;;;;;;;;;;4984754;28;20085;-83
2023/06/11 03:40:33;;;;;;;8.35;7.03;;;;;;;;;;4992178;28;20034;-84
2023/06/11 03:42:58;;;;;;;8.40;7.47;;;18.00;99.90;;;;;;4990667;28;20069;-83
2023/06/11 03:45:24;;;;;;;13.55;7.53;;;;;;;;;;4972779;28;20100;-83
2023/06/11 03:47:52;;;;;;;10.48;7.38;;;;;;;;;;4991489;28;20046;-83
2023/06/11 03:50:18;;;;;;;13.00;7.28;;;17.90;99.90;;;;;;4982731;28;20385;-83
2023/06/11 03:52:44;;;;;;;10.68;7.60;;;;;;;;;;4988382;28;20048;-83
2023/06/11 03:55:10;;;;;;;11.13;6.95;;;;;;;;;;4990337;28;20047;-83
2023/06/11 03:57:36;;;;;;;12.80;7.70;;;18.00;99.90;;;;;;4988574;28;20437;-83
2023/06/11 04:00:02;;;;;;;10.05;7.80;;;18.00;99.90;;;;;;4981204;28;20096;-83
2023/06/11 04:02:28;;;;;;;9.25;8.25;;;;;;;;;;5005445;28;20087;-83
2023/06/11 04:04:54;;;;;;;8.55;7.45;;;18.10;99.90;;;;;;4990026;28;20050;-83
2023/06/11 04:07:20;;;;;;;9.63;7.53;;;;;;;;;;4988577;28;20524;-84
2023/06/11 04:09:46;;;;;;;11.05;7.97;;;;;;;;;;4971622;28;20052;-84
2023/06/11 04:12:12;;;;;;;11.07;7.80;;;;;;;;;;4983841;28;20493;-83
2023/06/11 04:14:38;;;;;;;7.97;7.18;;;18.20;99.90;;;;;;4989022;28;20149;-83
2023/06/11 04:17:04;;;;;;;9.40;7.53;;;;;;;;;;4987402;28;20377;-83
2023/06/11 04:19:30;;;;;;;9.93;8.23;;;;;;;;;;4972347;28;20109;-85
2023/06/11 04:21:56;;;;;;;9.18;7.15;;;;;;;;;;4983362;28;20503;-84
2023/06/11 04:24:22;;;;;;;10.82;7.88;;;;;;;;;;4984782;28;20046;-84
2023/06/11 04:26:48;;;;;;;9.60;7.50;;;;;;;;;;4983881;28;20129;-85
2023/06/11 04:29:15;;;;;;;11.52;8.88;;;;;;;;;;4972750;28;20136;-85
2023/06/11 04:31:46;;;;;;;10.23;7.97;;;;;;;;;;4985307;28;20500;-84
2023/06/11 04:34:12;;;;;;;10.20;7.90;;;;;;;;;;4987770;28;20401;-84
2023/06/11 04:36:40;;;;;;;9.95;7.53;;;18.30;99.90;;;;;;4971780;28;20464;-84
2023/06/11 04:39:07;;;;;;;10.90;7.75;;;18.30;99.90;;;;;;4988612;28;20447;-84
2023/06/11 04:41:36;;;;;;;9.82;7.97;;;;;;;;;;4980692;28;20117;-84
2023/06/11 04:44:03;;;;;;;9.13;7.88;;;;;;;;;;4979641;28;20073;-85
2023/06/11 04:46:29;;;;;;;9.07;7.68;;;;;;;;;;4970807;28;20465;-85
2023/06/11 04:49:00;;;;;;;8.70;7.80;;;18.80;99.90;;;;;;4988958;28;20042;-84
2023/06/11 04:51:32;;;;;;;10.07;7.50;;;18.70;99.90;;;;;;4971294;28;20125;-85
2023/06/11 04:54:12;;;;;;;12.50;8.55;;;;;;;;;;4977029;28;20042;-85
2023/06/11 04:56:39;;;;;;;10.27;7.95;;;;;;;;;;4989463;28;20038;-85
2023/06/11 04:59:06;;;;;;;10.07;7.53;;;;;;;;;;4979984;28;20514;-85
2023/06/11 05:01:32;;;;;;;11.75;7.80;;;;;;;;;;4991651;28;20101;-85
2023/06/11 05:03:58;;;;;;;8.20;7.32;;;;;;;;;;4991240;28;20042;-85
2023/06/11 05:06:25;;;;;;;8.48;6.97;;;;;;;;;;4989575;28;20046;-85
2023/06/11 05:08:54;;;;;;;12.70;7.82;;;;;;;;;;4995356;28;20088;-85
2023/06/11 05:11:21;;;;;;;9.40;7.47;;;;;;;;;;4979485;28;20041;-86
2023/06/11 05:13:47;;;;;;;9.73;7.15;;;;;;;;;;5005151;28;20037;-84
2023/06/11 05:16:12;;;;;;;9.40;7.43;;;21.70;99.90;;;;;;4979738;28;20049;-84
2023/06/11 05:18:38;;;;;;;7.55;6.75;;;21.70;99.90;;;;;;4986676;28;20455;-84
2023/06/11 05:21:04;;;;;;;8.48;6.88;;;21.60;99.90;;;;;;4969293;28;20030;-84
2023/06/11 05:23:31;;;;;;;11.77;8.00;;;21.40;99.90;;;;;;4967638;28;20127;-84
2023/06/11 05:26:01;;;;;;;9.95;7.68;;;21.60;99.90;;;;;;4988085;28;20077;-84
2023/06/11 05:28:29;;;;;;;8.18;7.25;;;21.60;99.90;;;;;;4987032;28;20308;-85
2023/06/11 05:31:56;;;;;;;8.55;7.20;;;21.80;99.90;;;;;;4940009;29;20110;-85
2023/06/11 05:34:39;;;;;;;10.30;7.50;;;22.20;99.90;;;;;;4921027;29;20101;-86
2023/06/11 05:37:25;;;;;;;8.00;7.10;;;22.40;99.90;;;;;;4986124;28;20118;-85
2023/06/11 05:39:50;;;;;;;7.90;6.65;;;23.30;99.90;;;;;;4980663;28;20088;-85
2023/06/11 05:42:16;;;;;;;8.85;7.22;;;24.50;99.90;;;;;;4998107;28;20057;-85
2023/06/11 05:44:42;;;;;;;8.90;6.60;;;25.40;99.90;;;;;;4985798;28;20042;-85
2023/06/11 05:47:07;;;;;;;9.15;6.65;;;25.10;99.90;;;;;;4983366;28;20074;-86
2023/06/11 05:49:33;;;;;;;8.50;6.68;;;23.60;99.90;;;;;;4984027;28;20041;-86
2023/06/11 05:51:58;;;;;;;9.07;6.47;;;24.60;99.90;;;;;;4996097;28;20038;-85
2023/06/11 05:54:24;;;;;;;8.63;6.80;;;23.30;99.90;;;;;;4997370;28;20452;-86
2023/06/11 05:56:49;;;;;;;7.70;6.70;;;24.20;99.90;;;;;;4988192;28;20045;-85
2023/06/11 05:59:15;;;;;;;7.53;6.55;;;27.10;99.90;;;;;;5012835;28;20046;-86
2023/06/11 06:01:45;;;;;;;9.38;6.00;;;26.50;99.90;;;;;;4980597;28;20042;-85
2023/06/11 06:04:12;;;;;;;7.10;6.40;;;24.50;99.90;;;;;;4983926;28;20042;-85
2023/06/11 06:06:38;;;;;;;11.20;6.82;;;25.00;99.90;;;;;;4980661;28;20045;-85
2023/06/11 06:09:04;;;;;;;8.15;6.68;;;26.80;99.90;;;;;;4997739;28;20497;-86
2023/06/11 06:11:29;;;;;;;7.80;6.40;;;26.60;99.90;;;;;;5003217;28;20050;-85
2023/06/11 06:13:55;;;;;;;10.35;6.13;;;27.40;99.90;;;;;;4982672;28;20075;-86
2023/06/11 06:16:20;;;;;;;8.23;6.03;;;28.10;99.90;;;;;;4995698;28;20062;-87
2023/06/11 06:18:46;;;;;;;8.27;6.60;;;27.90;99.90;;;;;;4989768;28;20038;-87
2023/06/11 06:21:12;;;;;;;7.47;6.55;;;26.40;99.90;;;;;;4980369;28;20074;-85
2023/06/11 06:23:37;;;;;;;6.80;6.10;;;27.20;99.90;;;;;;4974034;28;20070;-85
2023/06/11 06:26:03;;;;;;;7.82;6.25;;;25.40;99.90;;;;;;5000946;28;20496;-86
2023/06/11 06:28:30;;;;;;;8.43;5.65;;;28.70;99.90;;;;;;4993082;28;20037;-86
2023/06/11 06:30:56;;;;;;;6.97;6.07;;;26.20;99.90;;;;;;4982096;28;20101;-87
2023/06/11 06:33:23;;;;;;;7.45;5.85;;;26.40;99.90;;;;;;4986356;28;20073;-85
2023/06/11 06:35:49;;;;;;;8.57;6.57;;;25.80;99.90;;;;;;4985776;28;20033;-86
2023/06/11 06:38:15;;;;;;;9.55;5.68;;;26.30;99.90;;;;;;4986457;28;20578;-86
2023/06/11 06:40:40;;;;;;;10.77;5.93;;;28.20;99.90;;;;;;4987703;28;20045;-86
2023/06/11 06:43:06;;;;;;;8.13;6.55;;;26.20;99.90;;;;;;4990792;28;20061;-86
2023/06/11 06:45:33;;;;;;;8.02;6.57;;;26.40;99.90;;;;;;5000958;28;20419;-85
2023/06/11 06:47:59;;;;;;;8.38;6.50;;;;;;;;;;4986131;28;20050;-87
2023/06/11 06:50:25;;;;;;;7.97;6.63;;;23.90;99.90;;;;;;4983863;28;20046;-85
2023/06/11 06:52:50;;;;;;;7.90;7.10;;;23.70;99.90;;;;;;4995132;28;20108;-85
2023/06/11 06:55:16;;;;;;;9.98;6.97;;;23.60;99.90;;;;;;4989621;28;20054;-86
2023/06/11 06:57:41;;;;;;;9.48;6.97;;;23.50;99.90;;;;;;5000839;28;20033;-86
2023/06/11 07:00:08;;;;;;;11.60;6.28;;;23.50;99.90;;;;;;5017206;28;20041;-86
2023/06/11 07:02:33;;;;;;;11.00;7.68;;;;;;;;;;5001451;28;20310;-86
2023/06/11 07:05:00;;;;;;;8.50;6.65;;;23.40;99.90;;;;;;4986324;28;20057;-85
2023/06/11 07:07:26;;;;;;;9.43;7.32;;;23.30;99.90;;;;;;5006383;28;20069;-86
2023/06/11 07:09:52;;;;;;;8.73;6.00;;;;;;;;;;4986099;28;20065;-85
2023/06/11 07:12:21;;;;;;;11.00;6.40;;;;;;;;;;4985327;28;20049;-87
2023/06/11 07:14:47;;;;;;;8.38;6.97;;;;;;;;;;4995557;28;20050;-87
2023/06/11 07:17:13;;;;;;;10.85;6.95;;;;;;;;;;4986301;28;20450;-87
2023/06/11 07:19:39;;;;;;;9.20;7.07;;;23.50;99.90;;;;;;4984810;28;20089;-91
2023/06/11 07:22:04;;;;;;;8.35;6.55;;;23.60;99.90;;;;;;4985631;28;20053;-86
2023/06/11 07:24:30;;;;;;;8.65;7.13;;;;;;;;;;5003096;28;20073;-88
2023/06/11 07:26:56;;;;;;;8.52;6.60;;;23.90;99.90;;;;;;4987024;28;20056;-89
2023/06/11 07:29:22;;;;;;;8.95;6.55;;;;;;;;;;5005813;28;20029;-88
2023/06/11 07:31:48;;;;;;;7.82;6.60;;;;;;;;;;4987234;28;20119;-87
2023/06/11 07:34:15;;;;;;;8.68;6.20;;;23.80;99.90;;;;;;4982999;28;20045;-86
2023/06/11 07:36:41;;;;;;;7.97;6.78;;;;;;;;;;4993988;28;20065;-85
2023/06/11 07:39:07;;;;;;;7.70;6.50;;;23.90;99.90;;;;;;4995639;28;20128;-84
2023/06/11 07:41:32;;;;;;;9.27;6.63;;;24.00;99.90;;;;;;5016654;28;20081;-85
2023/06/11 07:43:58;;;;;;;8.77;6.53;;;;;;;;;;5018038;28;20098;-84
2023/06/11 07:46:24;;;;;;;9.20;6.03;;;24.00;99.90;;;;;;4999233;28;20106;-86
2023/06/11 07:48:51;;;;;;;10.15;6.32;;;23.90;99.90;;;;;;4999185;28;20042;-86
2023/06/11 07:51:20;;;;;;;8.05;6.88;;;24.20;99.90;;;;;;4997011;28;20050;-86
2023/06/11 07:53:45;;;;;;;8.27;6.95;;;26.30;99.90;;;;;;4985125;28;20045;-86
2023/06/11 07:56:11;;;;;;;11.15;7.10;;;23.90;99.90;;;;;;4972011;28;20044;-86
2023/06/11 07:58:37;;;;;;;7.50;6.03;;;24.20;99.90;;;;;;4978298;28;20117;-85
2023/06/11 08:01:02;;;;;;;9.35;6.47;;;26.40;99.90;;;;;;4970873;28;20042;-86
2023/06/11 08:03:28;;;;;;;9.43;7.00;;;24.30;99.90;;;;;;4972269;28;20034;-85
2023/06/11 08:05:53;;;;;;;8.63;6.10;;;24.20;99.90;;;;;;4988433;28;20046;-85
2023/06/11 08:08:19;;;;;;;12.27;6.93;;;24.20;99.90;;;;;;4971168;28;20468;-85
2023/06/11 08:10:45;;;;;;;9.95;6.60;;;23.50;99.90;;;;;;4986389;28;20487;-85
2023/06/11 08:13:11;;;;;;;6.53;5.85;;;24.50;99.90;;;;;;4984667;28;20046;-85
2023/06/11 08:15:37;;;;;;;7.22;6.38;;;24.50;99.90;;;;;;4997286;28;20609;-85
2023/06/11 08:18:03;;;;;;;11.00;5.97;;;24.50;99.90;;;;;;4986557;28;20037;-85
2023/06/11 08:20:28;;;;;;;7.45;6.28;;;24.50;99.90;;;;;;4971233;28;20069;-85
2023/06/11 08:22:54;;;;;;;10.13;6.80;;;24.70;99.90;;;;;;4976596;28;20065;-86
2023/06/11 08:25:20;;;;;;;9.48;5.97;;;24.70;99.90;;;;;;4970977;28;20129;-85
2023/06/11 08:27:45;;;;;;;7.88;6.05;;;24.70;99.90;;;;;;4987876;28;20743;-85
2023/06/11 08:30:11;;;;;;;7.78;6.07;;;26.30;99.90;;;;;;4988406;28;20046;-85
2023/06/11 08:32:37;;;;;;;9.73;6.35;;;24.70;99.90;;;;;;4975197;28;20041;-85
2023/06/11 08:35:03;;;;;;;6.00;5.40;;;24.80;99.90;;;;;;4983043;28;20085;-85
2023/06/11 08:37:28;;;;;;;6.72;5.82;;;24.70;99.90;;;;;;4987284;28;20108;-86
2023/06/11 08:39:54;;;;;;;8.23;6.28;;;25.00;99.90;;;;;;4987554;28;20036;-85
2023/06/11 08:42:19;;;;;;;7.57;6.60;;;24.80;99.90;;;;;;4983205;28;20046;-85
2023/06/11 08:44:45;;;;;;;9.02;6.28;;;25.00;99.90;;;;;;4984233;28;20038;-85
2023/06/11 08:47:11;;;;;;;8.13;5.97;;;25.20;99.90;;;;;;4985757;28;20045;-85
2023/06/11 08:49:40;;;;;;;8.85;5.93;;;25.20;99.90;;;;;;4971493;28;20451;-85
2023/06/11 08:52:07;;;;;;;7.72;6.30;;;27.50;99.90;;;;;;4980554;28;20042;-85
2023/06/11 08:54:32;;;;;;;8.32;6.10;;;25.10;99.90;;;;;;4985421;28;22057;-85
2023/06/11 08:56:58;;;;;;;8.65;6.70;;;27.00;99.90;;;;;;4983618;28;20038;-85
2023/06/11 08:59:24;;;;;;;6.88;5.95;;;25.30;99.90;;;;;;4986021;28;20192;-85
2023/06/11 09:01:52;;;;;;;12.05;6.10;;;25.30;99.90;;;;;;4984139;28;20526;-85
2023/06/11 09:04:19;;;;;;;8.15;5.47;;;26.40;99.90;;;;;;4968367;28;20033;-85
2023/06/11 09:06:52;;;;;;;7.63;5.53;;;25.50;99.90;;;;;;4981337;28;20066;-85
2023/06/11 09:09:18;;;;;;;7.20;5.97;;;25.40;99.90;;;;;;4970445;28;20038;-86
2023/06/11 09:11:45;;;;;;;6.97;5.43;;;25.50;99.90;;;;;;4970348;28;20495;-84
2023/06/11 09:14:10;;;;;;;7.55;6.00;;;25.80;99.90;;;;;;4980915;28;20093;-84
2023/06/11 09:16:43;;;;;;;9.13;6.25;;;25.90;99.90;;;;;;4968818;28;20505;-85
2023/06/11 09:19:16;;;;;;;9.48;6.93;;;25.80;99.90;;;;;;4966805;28;20053;-84
2023/06/11 09:21:53;;;;;;;9.25;6.25;;;26.10;99.90;;;;;;4963764;28;20042;-84
2023/06/11 09:24:20;;;;;;;6.78;6.07;;;27.20;99.90;;;;;;4983955;28;20436;-84
2023/06/11 09:26:49;;;;;;;7.50;5.95;;;25.90;99.90;;;;;;4985922;28;20464;-84
2023/06/11 09:29:14;;;;;;;7.45;5.78;;;27.90;99.90;;;;;;4971245;28;20363;-84
2023/06/11 09:31:40;;;;;;;7.43;5.53;;;28.00;99.90;;;;;;4972002;28;20483;-84
2023/06/11 09:34:09;;;;;;;8.32;6.32;;;26.30;99.90;;;;;;4968115;28;20124;-85
2023/06/11 09:36:35;;;;;;;7.15;5.70;;;26.20;99.90;;;;;;4984235;28;20801;-85
2023/06/11 09:39:03;;;;;;;6.60;5.78;;;26.50;99.90;;;;;;4964029;28;20057;-84
2023/06/11 09:41:29;;;;;;;6.85;5.75;;;26.50;99.90;;;;;;4985467;28;20039;-84
2023/06/11 09:43:56;;;;;;;10.10;6.15;;;26.40;99.90;;;;;;4989933;28;20038;-84
2023/06/11 09:46:22;;;;;;;10.55;5.75;;;26.70;99.90;;;;;;4982134;28;20038;-84
2023/06/11 09:48:48;;;;;;;7.18;5.78;;;26.40;99.90;;;;;;4967689;28;20527;-84
2023/06/11 09:51:15;;;;;;;6.78;5.28;;;26.40;99.90;;;;;;4969882;28;20041;-84
2023/06/11 09:53:43;;;;;;;7.75;5.15;;;26.60;99.90;;;;;;4986446;28;20159;-84
2023/06/11 09:56:09;;;;;;;6.60;4.70;;;27.40;99.90;;;;;;4986460;28;20100;-84
2023/06/11 09:58:36;;;;;;;6.70;5.30;;;26.60;99.90;;;;;;4987828;28;20572;-84
2023/06/11 10:01:03;;;;;;;12.20;5.70;;;26.70;99.90;;;;;;4986216;28;20049;-85
2023/06/11 10:03:30;;;;;;;9.55;5.03;;;26.60;99.90;;;;;;4988369;28;20053;-84
2023/06/11 10:05:57;;;;;;;6.85;4.55;;;28.30;99.90;;;;;;4987742;28;20104;-85
2023/06/11 10:08:27;;;;;;;5.70;5.03;;;27.00;99.90;;;;;;4974588;28;20173;-85
2023/06/11 10:10:57;;;;;;;6.97;4.40;;;26.90;99.90;;;;;;4987346;28;20074;-85
2023/06/11 10:13:34;;;;;;;7.50;4.68;;;27.00;99.90;;;;;;4987795;28;20049;-85
2023/06/11 10:16:06;;;;;;;4.40;3.78;;;27.20;99.90;;;;;;4974824;28;20033;-86
2023/06/11 10:18:33;;;;;;;6.45;4.47;;;27.30;99.90;;;;;;4972452;28;20065;-85
2023/06/11 10:21:01;;;;;;;7.10;4.88;;;27.20;99.90;;;;;;4973150;28;20041;-85
2023/06/11 10:23:40;;;;;;;6.63;4.78;;;27.40;99.90;;;;;;4979490;28;20819;-84
2023/06/11 10:26:07;;;;;;;6.13;4.28;;;28.70;99.90;;;;;;4989632;28;20045;-84
2023/06/11 10:28:51;;;;;;;5.40;4.57;;;27.60;99.90;;;;;;4966510;28;20504;-85
2023/06/11 10:31:29;;;;;;;6.10;4.80;;;27.50;99.90;;;;;;4986491;28;20046;-83
2023/06/11 10:34:02;;;;;;;7.35;5.15;;;27.30;99.90;;;;;;4979145;28;20048;-84
2023/06/11 10:36:36;;;;;;;7.50;5.20;;;27.50;99.90;;;;;;4984066;28;20369;-85
2023/06/11 10:39:08;;;;;;;8.60;4.57;;;27.40;99.90;;;;;;5006792;28;20097;-85
2023/06/11 10:41:42;;;;;;;7.80;4.57;;;27.60;99.90;;;;;;4970949;28;20049;-86
2023/06/11 10:44:10;;;;;;;5.15;4.07;;;28.90;99.90;;;;;;4983860;28;20121;-85
2023/06/11 10:46:51;;;;;;;6.43;5.10;;;29.80;99.90;;;;;;4982612;28;20050;-85
2023/06/11 10:49:21;;;;;;;7.30;4.78;;;27.50;99.90;;;;;;4986524;28;20049;-84
2023/06/11 10:51:49;;;;;;;9.05;4.72;;;27.80;99.90;;;;;;4991137;28;20054;-86
2023/06/11 10:54:25;;;;;;;5.78;4.05;;;27.40;99.90;;;;;;4989402;28;20062;-85
2023/06/11 10:56:51;;;;;;;6.22;3.92;;;29.60;99.90;;;;;;4978334;28;20050;-84
2023/06/11 10:59:18;;;;;;;7.95;4.50;;;27.60;99.90;;;;;;4984345;28;20056;-84
2023/06/11 11:01:43;;;;;;;4.75;3.75;;;27.70;99.90;;;;;;4971706;28;20145;-84
2023/06/11 11:04:09;;;;;;;5.32;4.35;;;27.60;99.90;;;;;;4987117;28;20177;-83
2023/06/11 11:06:36;;;;;;;7.05;4.57;;;27.80;99.90;;;;;;4981986;28;20049;-84
2023/06/11 11:09:03;;;;;;;5.97;4.30;;;27.60;99.90;;;;;;4983079;28;20042;-85
2023/06/11 11:11:28;;;;;;;6.95;4.32;;;28.50;99.90;;;;;;4987978;28;20091;-84
2023/06/11 11:13:57;;;;;;;6.70;4.57;;;27.60;99.90;;;;;;4981751;28;20412;-85
2023/06/11 11:16:23;;;;;;;5.97;4.10;;;29.10;99.90;;;;;;4974348;28;20407;-84
2023/06/11 11:18:49;;;;;;;8.57;4.50;;;27.70;99.90;;;;;;4988726;28;20037;-84
2023/06/11 11:21:17;;;;;;;5.20;4.10;;;26.70;99.90;;;;;;4975507;28;20038;-84
2023/06/11 11:23:47;;;;;;;6.38;4.15;;;27.40;99.90;;;;;;4988131;28;20041;-84
2023/06/11 11:26:12;;;;;;;6.88;3.90;;;30.10;99.90;;;;;;4986430;28;20052;-84
2023/06/11 11:28:38;;;;;;;7.18;4.28;;;27.90;99.90;;;;;;4981042;28;20042;-84
2023/06/11 11:31:04;;;;;;;7.78;4.05;;;29.30;99.90;;;;;;4972734;28;20037;-85
2023/06/11 11:33:33;;;;;;;7.32;3.75;;;29.90;99.90;;;;;;4979563;28;20049;-85
2023/06/11 11:36:01;;;;;;;4.88;3.42;;;27.90;99.90;;;;;;4987181;28;20488;-85
2023/06/11 11:38:34;;;;;;;6.43;3.80;;;28.30;99.90;;;;;;4967182;28;20058;-84
2023/06/11 11:40:59;;;;;;;8.43;3.33;;;28.90;99.90;;;;;;4980352;28;20050;-84
2023/06/11 11:43:25;;;;;;;7.90;4.20;;;28.10;99.90;;;;;;4969855;28;20492;-84
2023/06/11 11:45:52;;;;;;;6.53;3.88;;;28.30;99.90;;;;;;4968870;28;20518;-84
2023/06/11 11:48:18;;;;;;;5.30;3.40;;;28.60;99.90;;;;;;4962817;28;20090;-85
2023/06/11 11:50:45;;;;;;;5.43;3.67;;;28.60;99.90;;;;;;4977375;28;20560;-84
2023/06/11 11:53:14;;;;;;;7.20;3.90;;;30.70;99.90;;;;;;4964880;28;20066;-84
2023/06/11 11:55:45;;;;;;;6.00;3.67;;;28.50;99.90;;;;;;4968007;28;20046;-84
2023/06/11 11:58:13;;;;;;;6.15;3.20;;;30.00;99.90;;;;;;4983283;28;20101;-86
2023/06/11 12:00:53;;;;;;;5.43;3.55;;;30.50;99.90;;;;;;4959961;28;20067;-84
2023/06/11 12:03:22;;;;;;;5.72;3.13;;;28.80;99.90;;;;;;4961688;28;20043;-86
2023/06/11 12:06:06;;;;;;;5.20;3.65;;;28.90;99.90;;;;;;4977074;28;20117;-85
2023/06/11 12:08:33;;;;;;;4.32;3.63;;;29.30;99.90;;;;;;4983265;28;20042;-84
2023/06/11 12:10:59;;;;;;;4.53;3.13;;;28.80;99.90;;;;;;4978747;28;20043;-84
2023/06/11 12:13:25;;;;;;;8.07;3.80;;;30.30;99.90;;;;;;4981307;28;20085;-85
2023/06/11 12:15:51;;;;;;;7.88;4.15;;;29.00;99.90;;;;;;4981186;28;20074;-84
2023/06/11 12:18:17;;;;;;;5.45;3.63;;;30.10;99.90;;;;;;4979864;28;20042;-86
2023/06/11 12:20:42;;;;;;;5.18;3.78;;;29.00;99.90;;;;;;4986415;28;20033;-85
2023/06/11 12:23:08;;;;;;;9.30;3.72;;;30.90;99.90;;;;;;4981678;28;20038;-84
2023/06/11 12:25:34;;;;;;;5.25;3.80;;;30.60;99.90;;;;;;4983107;28;20339;-84
2023/06/11 12:28:00;;;;;;;5.13;3.47;;;31.50;99.90;;;;;;4985448;28;20053;-84
2023/06/11 12:30:26;;;;;;;7.93;3.35;;;29.00;99.90;;;;;;4981777;28;20097;-85
2023/06/11 12:32:52;;;;;;;7.53;3.63;;;30.30;99.90;;;;;;4985214;28;20046;-85
2023/06/11 12:35:18;;;;;;;5.18;3.10;;;30.80;99.90;;;;;;4981685;28;20062;-84
2023/06/11 12:37:45;;;;;;;6.00;3.85;;;29.40;99.90;;;;;;4978784;28;20424;-85
2023/06/11 12:40:12;;;;;;;10.68;4.15;;;29.30;99.90;;;;;;4980213;28;20057;-85
2023/06/11 12:42:38;;;;;;;4.20;3.00;;;29.40;99.90;;;;;;4979298;28;20062;-86
2023/06/11 12:45:04;;;;;;;6.75;3.85;;;31.50;99.90;;;;;;4977242;28;20042;-85
2023/06/11 12:47:30;;;;;;;5.00;3.75;;;29.50;99.90;;;;;;4962834;28;20038;-85
2023/06/11 12:49:56;;;;;;;6.82;3.38;;;29.20;99.90;;;;;;4965963;28;20092;-85
2023/06/11 12:52:22;;;;;;;5.25;3.75;;;30.50;99.90;;;;;;4974934;28;20047;-85
2023/06/11 12:54:48;;;;;;;7.00;3.80;;;31.30;99.90;;;;;;4956346;28;20468;-84
2023/06/11 12:57:15;;;;;;;5.28;3.58;;;30.50;99.90;;;;;;4967324;28;20042;-84
2023/06/11 12:59:41;;;;;;;4.53;3.35;;;29.00;99.90;;;;;;4966075;28;20524;-85
2023/06/11 13:02:08;;;;;;;6.63;3.63;;;30.70;99.90;;;;;;4964879;28;20137;-86
2023/06/11 13:04:34;;;;;;;6.57;4.40;;;29.80;99.90;;;;;;4994049;28;20044;-85
2023/06/11 13:06:59;;;;;;;6.25;3.63;;;29.10;99.90;;;;;;4988309;28;20039;-85
2023/06/11 13:09:25;;;;;;;6.32;3.45;;;29.60;99.90;;;;;;4967887;28;20042;-85
2023/06/11 13:11:51;;;;;;;8.95;3.58;;;29.50;99.90;;;;;;4967737;28;20117;-85
2023/06/11 13:14:18;;;;;;;6.68;4.43;;;30.60;99.90;;;;;;4980782;28;20050;-84